createdAt,value
2018-04-04T00:00:13.718Z,96745.98
2018-04-04T00:00:45.386Z,96742.42
2018-04-04T00:01:16.972Z,96746.86
2018-04-04T00:01:48.584Z,96747.72
2018-04-04T00:02:20.174Z,96746.91
2018-04-04T00:02:51.784Z,96749.02
2018-04-04T00:03:23.458Z,96745.70
2018-04-04T00:03:55.059Z,96752.92
2018-04-04T00:04:26.652Z,96744.51
2018-04-04T00:04:58.252Z,96741.10
2018-04-04T00:05:29.863Z,96745.84
2018-04-04T00:06:01.462Z,96733.48
2018-04-04T00:06:33.062Z,96738.87
2018-04-04T00:07:04.653Z,96737.98
2018-04-04T00:07:36.241Z,96742.16
2018-04-04T00:08:07.824Z,96740.73
2018-04-04T00:08:39.433Z,96743.28
2018-04-04T00:09:11.053Z,96748.06
2018-04-04T00:09:42.676Z,96746.86
2018-04-04T00:10:14.287Z,96737.05
2018-04-04T00:10:45.895Z,96729.62
2018-04-04T00:11:17.504Z,96738.55
2018-04-04T00:11:49.091Z,96738.81
2018-04-04T00:12:20.704Z,96741.77
2018-04-04T00:12:52.368Z,96736.66
2018-04-04T00:13:23.956Z,96739.20
2018-04-04T00:13:55.627Z,96738.35
2018-04-04T00:14:27.202Z,96734.95
2018-04-04T00:14:58.817Z,96740.05
2018-04-04T00:15:30.398Z,96744.73
2018-04-04T00:16:01.984Z,96741.02
2018-04-04T00:16:33.578Z,96733.27
2018-04-04T00:17:05.168Z,96736.31
2018-04-04T00:17:36.780Z,96740.68
2018-04-04T00:18:08.376Z,96741.54
2018-04-04T00:18:39.985Z,96734.33
2018-04-04T00:19:11.641Z,96743.67
2018-04-04T00:19:43.250Z,96728.14
2018-04-04T00:20:14.840Z,96739.47
2018-04-04T00:20:46.424Z,96743.25
2018-04-04T00:21:18.014Z,96739.47
2018-04-04T00:21:49.587Z,96758.14
2018-04-04T00:22:21.184Z,96735.20
2018-04-04T00:22:52.778Z,96736.04
2018-04-04T00:23:24.375Z,96738.25
2018-04-04T00:23:55.960Z,96738.25
2018-04-04T00:24:27.623Z,96745.39
2018-04-04T00:24:59.206Z,96739.33
2018-04-04T00:25:30.803Z,96743.25
2018-04-04T00:26:02.378Z,96741.98
2018-04-04T00:26:33.970Z,96743.16
2018-04-04T00:27:05.550Z,96740.53
2018-04-04T00:27:37.151Z,96743.06
2018-04-04T00:28:08.740Z,96741.37
2018-04-04T00:28:40.328Z,96744.84
2018-04-04T00:29:11.926Z,96736.68
2018-04-04T00:29:43.587Z,96739.99
2018-04-04T00:30:15.172Z,96738.16
2018-04-04T00:30:46.780Z,96739.87
2018-04-04T00:31:18.392Z,96740.19
2018-04-04T00:31:49.981Z,96743.47
2018-04-04T00:32:21.555Z,96732.59
2018-04-04T00:32:53.140Z,96741.94
2018-04-04T00:33:24.724Z,96734.74
2018-04-04T00:33:56.338Z,96734.20
2018-04-04T00:34:28.101Z,96733.89
2018-04-04T00:34:59.752Z,96731.41
2018-04-04T00:35:31.360Z,96740.05
2018-04-04T00:36:02.947Z,96735.38
2018-04-04T00:36:34.556Z,96735.42
2018-04-04T00:37:06.174Z,96741.95
2018-04-04T00:37:37.750Z,96733.92
2018-04-04T00:38:09.356Z,96740.36
2018-04-04T00:38:40.952Z,96736.55
2018-04-04T00:39:12.551Z,96742.91
2018-04-04T00:39:44.153Z,96743.28
2018-04-04T00:40:15.804Z,96742.84
2018-04-04T00:40:47.378Z,96733.70
2018-04-04T00:41:18.985Z,96736.26
2018-04-04T00:41:50.574Z,96735.06
2018-04-04T00:42:22.154Z,96738.81
2018-04-04T00:42:53.760Z,96740.58
2018-04-04T00:43:25.343Z,96736.23
2018-04-04T00:43:56.952Z,96740.48
2018-04-04T00:44:28.540Z,96741.64
2018-04-04T00:45:00.111Z,96736.55
2018-04-04T00:45:31.720Z,96735.26
2018-04-04T00:46:03.295Z,96733.08
2018-04-04T00:46:34.884Z,96735.20
2018-04-04T00:47:06.496Z,96733.61
2018-04-04T00:47:38.088Z,96727.25
2018-04-04T00:48:09.676Z,96733.25
2018-04-04T00:48:41.260Z,96733.92
2018-04-04T00:49:12.843Z,96727.45
2018-04-04T00:49:44.452Z,96732.29
2018-04-04T00:50:16.044Z,96733.98
2018-04-04T00:50:47.711Z,96733.08
2018-04-04T00:51:19.334Z,96734.77
2018-04-04T00:51:50.919Z,96729.22
2018-04-04T00:52:22.504Z,96731.77
2018-04-04T00:52:54.092Z,96736.48
2018-04-04T00:53:25.763Z,96733.83
2018-04-04T00:53:57.342Z,96732.00
2018-04-04T00:54:28.982Z,96733.15
2018-04-04T00:55:00.579Z,96736.53
2018-04-04T00:55:32.183Z,96736.44
2018-04-04T00:56:03.850Z,96732.17
2018-04-04T00:56:35.431Z,96733.47
2018-04-04T00:57:07.045Z,96731.75
2018-04-04T00:57:38.660Z,96730.94
2018-04-04T00:58:10.240Z,96733.49
2018-04-04T00:58:41.844Z,96724.30
2018-04-04T00:59:13.455Z,96725.38
2018-04-04T00:59:45.044Z,96725.05
2018-04-04T01:00:16.657Z,96734.64
2018-04-04T01:00:48.239Z,96728.64
2018-04-04T01:01:19.916Z,96726.13
2018-04-04T01:01:51.497Z,96731.13
2018-04-04T01:02:23.103Z,96726.30
2018-04-04T01:02:54.709Z,96728.26
2018-04-04T01:03:26.323Z,96729.81
2018-04-04T01:03:57.936Z,96725.08
2018-04-04T01:04:29.535Z,96732.07
2018-04-04T01:05:01.156Z,96727.09
2018-04-04T01:05:32.776Z,96718.78
2018-04-04T01:06:04.374Z,96728.19
2018-04-04T01:06:36.068Z,96724.88
2018-04-04T01:07:07.680Z,96719.41
2018-04-04T01:07:39.292Z,96721.98
2018-04-04T01:08:10.884Z,96722.33
2018-04-04T01:08:42.496Z,96717.11
2018-04-04T01:09:14.088Z,96720.09
2018-04-04T01:09:45.672Z,96710.65
2018-04-04T01:10:17.284Z,96710.83
2018-04-04T01:10:48.896Z,96713.39
2018-04-04T01:11:20.489Z,96712.66
2018-04-04T01:11:52.138Z,96711.31
2018-04-04T01:12:23.739Z,96710.77
2018-04-04T01:12:55.329Z,96713.23
2018-04-04T01:13:26.938Z,96706.89
2018-04-04T01:13:58.524Z,96709.94
2018-04-04T01:14:30.136Z,96708.17
2018-04-04T01:15:01.722Z,96711.12
2018-04-04T01:15:33.312Z,96710.70
2018-04-04T01:16:04.938Z,96712.49
2018-04-04T01:16:36.528Z,96713.39
2018-04-04T01:17:08.177Z,96710.90
2018-04-04T01:17:39.778Z,96720.61
2018-04-04T01:18:11.391Z,96721.01
2018-04-04T01:18:42.984Z,96710.84
2018-04-04T01:19:14.587Z,96716.37
2018-04-04T01:19:46.167Z,96712.66
2018-04-04T01:20:17.794Z,96717.38
2018-04-04T01:20:49.369Z,96712.73
2018-04-04T01:21:20.976Z,96718.72
2018-04-04T01:21:52.595Z,96723.91
2018-04-04T01:22:24.272Z,96723.50
2018-04-04T01:22:55.875Z,96721.08
2018-04-04T01:23:27.465Z,96723.95
2018-04-04T01:23:59.052Z,96726.98
2018-04-04T01:24:30.655Z,96717.66
2018-04-04T01:25:02.248Z,96721.89
2018-04-04T01:25:33.822Z,96722.02
2018-04-04T01:26:05.405Z,96726.40
2018-04-04T01:26:37.021Z,96715.70
2018-04-04T01:27:08.612Z,96724.70
2018-04-04T01:27:40.282Z,96724.22
2018-04-04T01:28:11.876Z,96719.02
2018-04-04T01:28:43.464Z,96723.23
2018-04-04T01:29:15.043Z,96721.47
2018-04-04T01:29:46.628Z,96725.59
2018-04-04T01:30:18.248Z,96720.49
2018-04-04T01:30:49.840Z,96720.91
2018-04-04T01:31:21.450Z,96722.48
2018-04-04T01:31:53.050Z,96723.34
2018-04-04T01:32:24.650Z,96720.79
2018-04-04T01:32:56.324Z,96723.23
2018-04-04T01:33:27.906Z,96729.62
2018-04-04T01:33:59.511Z,96768.73
2018-04-04T01:34:31.105Z,96719.33
2018-04-04T01:35:02.706Z,96725.40
2018-04-04T01:35:34.297Z,96732.17
2018-04-04T01:36:05.887Z,96726.98
2018-04-04T01:36:37.466Z,96727.31
2018-04-04T01:37:09.052Z,96722.99
2018-04-04T01:37:40.662Z,96726.30
2018-04-04T01:38:12.340Z,96725.91
2018-04-04T01:38:43.932Z,96719.19
2018-04-04T01:39:15.520Z,96730.16
2018-04-04T01:39:47.130Z,96724.53
2018-04-04T01:40:18.745Z,96726.23
2018-04-04T01:40:50.322Z,96721.14
2018-04-04T01:41:21.938Z,96723.31
2018-04-04T01:41:53.548Z,96720.34
2018-04-04T01:42:25.136Z,96721.62
2018-04-04T01:42:56.714Z,96720.34
2018-04-04T01:43:28.388Z,96723.58
2018-04-04T01:43:59.980Z,96722.18
2018-04-04T01:44:31.593Z,96725.17
2018-04-04T01:45:03.194Z,96730.80
2018-04-04T01:45:34.815Z,96729.55
2018-04-04T01:46:06.445Z,96729.62
2018-04-04T01:46:38.039Z,96728.29
2018-04-04T01:47:09.628Z,96723.23
2018-04-04T01:47:41.232Z,96723.58
2018-04-04T01:48:12.841Z,96723.92
2018-04-04T01:48:44.544Z,96729.02
2018-04-04T01:49:16.156Z,96720.17
2018-04-04T01:49:47.735Z,96722.28
2018-04-04T01:50:19.348Z,96718.06
2018-04-04T01:50:50.941Z,96718.92
2018-04-04T01:51:22.546Z,96724.46
2018-04-04T01:51:54.126Z,96727.06
2018-04-04T01:52:25.837Z,96725.25
2018-04-04T01:52:57.424Z,96725.16
2018-04-04T01:53:29.032Z,96722.08
2018-04-04T01:54:00.712Z,96731.83
2018-04-04T01:54:32.300Z,96721.13
2018-04-04T01:55:03.908Z,96722.10
2018-04-04T01:55:35.520Z,96728.44
2018-04-04T01:56:07.127Z,96726.74
2018-04-04T01:56:38.744Z,96725.45
2018-04-04T01:57:10.356Z,96725.88
2018-04-04T01:57:41.966Z,96723.44
2018-04-04T01:58:13.569Z,96724.27
2018-04-04T01:58:45.168Z,96721.66
2018-04-04T01:59:16.820Z,96725.94
2018-04-04T01:59:48.409Z,96725.08
2018-04-04T02:00:20.010Z,96727.45
2018-04-04T02:00:51.624Z,96732.06
2018-04-04T02:01:23.204Z,96729.08
2018-04-04T02:01:54.814Z,96727.77
2018-04-04T02:02:26.411Z,96726.98
2018-04-04T02:02:58.011Z,96727.80
2018-04-04T02:03:29.632Z,96728.09
2018-04-04T02:04:01.235Z,96725.98
2018-04-04T02:04:32.815Z,96724.36
2018-04-04T02:05:04.418Z,96717.83
2018-04-04T02:05:36.024Z,96727.06
2018-04-04T02:06:07.645Z,96720.91
2018-04-04T02:06:39.225Z,96724.63
2018-04-04T02:07:10.824Z,96724.95
2018-04-04T02:07:42.443Z,96725.70
2018-04-04T02:08:14.049Z,96726.18
2018-04-04T02:08:45.640Z,96725.88
2018-04-04T02:09:17.294Z,96717.05
2018-04-04T02:09:48.880Z,96725.08
2018-04-04T02:10:20.488Z,96727.94
2018-04-04T02:10:52.081Z,96721.56
2018-04-04T02:11:23.655Z,96724.84
2018-04-04T02:11:55.255Z,96724.70
2018-04-04T02:12:26.848Z,96724.28
2018-04-04T02:12:58.462Z,96724.73
2018-04-04T02:13:30.053Z,96728.43
2018-04-04T02:14:01.654Z,96731.42
2018-04-04T02:14:33.305Z,96725.86
2018-04-04T02:15:04.892Z,96723.34
2018-04-04T02:15:36.470Z,96731.06
2018-04-04T02:16:08.080Z,96727.28
2018-04-04T02:16:39.658Z,96729.73
2018-04-04T02:17:11.268Z,96729.47
2018-04-04T02:17:42.871Z,96726.92
2018-04-04T02:18:14.460Z,96728.11
2018-04-04T02:18:46.042Z,96725.14
2018-04-04T02:19:17.638Z,96725.98
2018-04-04T02:19:49.314Z,96725.56
2018-04-04T02:20:20.933Z,96722.17
2018-04-04T02:20:52.545Z,96720.45
2018-04-04T02:21:24.142Z,96720.88
2018-04-04T02:21:55.765Z,96721.70
2018-04-04T02:22:27.381Z,96727.28
2018-04-04T02:22:58.972Z,96728.03
2018-04-04T02:23:30.571Z,96723.89
2018-04-04T02:24:02.177Z,96721.88
2018-04-04T02:24:33.772Z,96724.07
2018-04-04T02:25:05.412Z,96725.78
2018-04-04T02:25:37.011Z,96723.09
2018-04-04T02:26:08.591Z,96725.13
2018-04-04T02:26:40.180Z,96725.05
2018-04-04T02:27:11.788Z,96725.46
2018-04-04T02:27:43.383Z,96724.07
2018-04-04T02:28:14.996Z,96719.33
2018-04-04T02:28:46.620Z,96723.87
2018-04-04T02:29:18.211Z,96725.98
2018-04-04T02:29:49.796Z,96724.68
2018-04-04T02:30:21.461Z,96730.69
2018-04-04T02:30:53.057Z,96727.33
2018-04-04T02:31:24.652Z,96721.49
2018-04-04T02:31:56.260Z,96721.88
2018-04-04T02:32:27.863Z,96724.07
2018-04-04T02:32:59.453Z,96719.80
2018-04-04T02:33:31.065Z,96723.23
2018-04-04T02:34:02.686Z,96721.56
2018-04-04T02:34:34.300Z,96724.05
2018-04-04T02:35:05.903Z,96728.73
2018-04-04T02:35:37.544Z,96718.20
2018-04-04T02:36:09.142Z,96724.95
2018-04-04T02:36:40.756Z,96732.92
2018-04-04T02:37:12.344Z,96728.75
2018-04-04T02:37:43.923Z,96723.33
2018-04-04T02:38:15.512Z,96725.55
2018-04-04T02:38:47.120Z,96723.02
2018-04-04T02:39:18.732Z,96725.34
2018-04-04T02:39:50.337Z,96724.41
2018-04-04T02:40:21.914Z,96728.31
2018-04-04T02:40:53.562Z,96731.97
2018-04-04T02:41:25.178Z,96730.79
2018-04-04T02:41:56.792Z,96696.67
2018-04-04T02:42:28.418Z,96722.93
2018-04-04T02:43:00.004Z,96728.14
2018-04-04T02:43:31.612Z,96731.16
2018-04-04T02:44:03.214Z,96734.41
2018-04-04T02:44:34.810Z,96733.61
2018-04-04T02:45:06.410Z,96732.75
2018-04-04T02:45:38.020Z,96725.56
2018-04-04T02:46:09.642Z,96732.26
2018-04-04T02:46:41.260Z,96727.89
2018-04-04T02:47:12.872Z,96728.33
2018-04-04T02:47:44.460Z,96732.22
2018-04-04T02:48:16.069Z,96733.95
2018-04-04T02:48:47.684Z,96736.95
2018-04-04T02:49:19.273Z,96732.34
2018-04-04T02:49:50.859Z,96735.35
2018-04-04T02:50:22.452Z,96736.66
2018-04-04T02:50:54.045Z,96737.13
2018-04-04T02:51:25.684Z,96727.23
2018-04-04T02:51:57.274Z,96737.27
2018-04-04T02:52:28.850Z,96734.77
2018-04-04T02:53:00.460Z,96734.22
2018-04-04T02:53:32.044Z,96740.19
2018-04-04T02:54:03.628Z,96737.66
2018-04-04T02:54:35.244Z,96736.63
2018-04-04T02:55:06.832Z,96732.84
2018-04-04T02:55:38.416Z,96737.43
2018-04-04T02:56:10.015Z,96739.13
2018-04-04T02:56:41.660Z,96735.27
2018-04-04T02:57:13.268Z,96735.17
2018-04-04T02:57:44.896Z,96735.77
2018-04-04T02:58:16.521Z,96741.14
2018-04-04T02:58:48.148Z,96742.77
2018-04-04T02:59:19.736Z,96741.05
2018-04-04T02:59:51.314Z,96733.92
2018-04-04T03:00:22.908Z,96737.73
2018-04-04T03:00:54.504Z,96738.45
2018-04-04T03:01:26.116Z,96738.82
2018-04-04T03:01:57.784Z,96744.20
2018-04-04T03:02:29.397Z,96741.55
2018-04-04T03:03:01.013Z,96739.73
2018-04-04T03:03:32.610Z,96747.83
2018-04-04T03:04:04.213Z,96747.12
2018-04-04T03:04:35.804Z,96748.17
2018-04-04T03:05:07.413Z,96743.38
2018-04-04T03:05:39.025Z,96744.60
2018-04-04T03:06:10.635Z,96744.52
2018-04-04T03:06:42.239Z,96747.63
2018-04-04T03:07:13.892Z,96741.68
2018-04-04T03:07:45.506Z,96746.32
2018-04-04T03:08:17.087Z,96743.55
2018-04-04T03:08:48.685Z,96742.70
2018-04-04T03:09:20.348Z,96744.73
2018-04-04T03:09:51.932Z,96747.59
2018-04-04T03:10:23.510Z,96737.36
2018-04-04T03:10:55.079Z,96741.03
2018-04-04T03:11:26.664Z,96742.28
2018-04-04T03:11:58.248Z,96739.75
2018-04-04T03:12:29.907Z,96742.23
2018-04-04T03:13:01.500Z,96741.32
2018-04-04T03:13:33.083Z,96740.10
2018-04-04T03:14:04.668Z,96736.31
2018-04-04T03:14:36.251Z,96746.41
2018-04-04T03:15:07.863Z,96742.59
2018-04-04T03:15:39.456Z,96743.75
2018-04-04T03:16:11.086Z,96749.73
2018-04-04T03:16:42.672Z,96742.47
2018-04-04T03:17:14.284Z,96744.92
2018-04-04T03:17:45.947Z,96746.56
2018-04-04T03:18:17.536Z,96746.46
2018-04-04T03:18:49.125Z,96741.80
2018-04-04T03:19:20.732Z,96746.48
2018-04-04T03:19:52.325Z,96747.42
2018-04-04T03:20:23.898Z,96745.70
2018-04-04T03:20:55.471Z,96742.42
2018-04-04T03:21:27.056Z,96747.05
2018-04-04T03:21:58.651Z,96748.88
2018-04-04T03:22:30.264Z,96743.45
2018-04-04T03:23:01.904Z,96736.31
2018-04-04T03:23:33.516Z,96742.31
2018-04-04T03:24:05.120Z,96738.53
2018-04-04T03:24:36.705Z,96735.69
2018-04-04T03:25:08.316Z,96743.27
2018-04-04T03:25:39.918Z,96755.36
2018-04-04T03:26:11.533Z,96745.69
2018-04-04T03:26:43.110Z,96752.18
2018-04-04T03:27:14.736Z,96748.00
2018-04-04T03:27:46.342Z,96758.76
2018-04-04T03:28:17.979Z,96752.84
2018-04-04T03:28:49.559Z,96751.48
2018-04-04T03:29:21.144Z,96756.59
2018-04-04T03:29:52.729Z,96749.58
2018-04-04T03:30:24.351Z,96750.59
2018-04-04T03:30:55.950Z,96751.39
2018-04-04T03:31:27.523Z,96750.98
2018-04-04T03:31:59.107Z,96753.58
2018-04-04T03:32:30.716Z,96753.73
2018-04-04T03:33:02.317Z,96759.75
2018-04-04T03:33:33.975Z,96756.26
2018-04-04T03:34:05.564Z,96761.37
2018-04-04T03:34:37.148Z,96755.00
2018-04-04T03:35:08.722Z,96763.00
2018-04-04T03:35:40.327Z,96764.38
2018-04-04T03:36:11.917Z,96764.80
2018-04-04T03:36:43.521Z,96761.05
2018-04-04T03:37:15.136Z,96764.61
2018-04-04T03:37:46.748Z,96767.45
2018-04-04T03:38:18.336Z,96771.42
2018-04-04T03:38:50.008Z,96771.06
2018-04-04T03:39:21.620Z,96772.48
2018-04-04T03:39:53.222Z,96772.02
2018-04-04T03:40:24.802Z,96770.30
2018-04-04T03:40:56.392Z,96776.61
2018-04-04T03:41:27.978Z,96772.26
2018-04-04T03:41:59.598Z,96771.60
2018-04-04T03:42:31.188Z,96771.72
2018-04-04T03:43:02.797Z,96781.93
2018-04-04T03:43:34.399Z,96772.14
2018-04-04T03:44:06.040Z,96770.45
2018-04-04T03:44:37.647Z,96765.69
2018-04-04T03:45:09.262Z,96768.95
2018-04-04T03:45:40.866Z,96774.45
2018-04-04T03:46:12.460Z,96764.28
2018-04-04T03:46:44.071Z,96769.89
2018-04-04T03:47:15.659Z,96766.42
2018-04-04T03:47:47.270Z,96770.96
2018-04-04T03:48:18.871Z,96767.23
2018-04-04T03:48:50.452Z,96770.25
2018-04-04T03:49:22.116Z,96768.06
2018-04-04T03:49:53.744Z,96776.48
2018-04-04T03:50:25.332Z,96767.95
2018-04-04T03:50:56.920Z,96775.19
2018-04-04T03:51:28.513Z,96768.31
2018-04-04T03:52:00.131Z,96769.13
2018-04-04T03:52:31.735Z,96759.94
2018-04-04T03:53:03.338Z,96773.00
2018-04-04T03:53:34.924Z,96762.87
2018-04-04T03:54:06.498Z,96774.27
2018-04-04T03:54:38.140Z,96767.35
2018-04-04T03:55:09.751Z,96772.88
2018-04-04T03:55:41.350Z,96774.12
2018-04-04T03:56:12.945Z,96767.80
2018-04-04T03:56:44.542Z,96766.57
2018-04-04T03:57:16.132Z,96771.16
2018-04-04T03:57:47.745Z,96774.03
2018-04-04T03:58:19.347Z,96769.34
2018-04-04T03:58:50.956Z,96771.06
2018-04-04T03:59:22.559Z,96763.80
2018-04-04T03:59:54.214Z,96775.96
2018-04-04T04:00:25.814Z,96773.36
2018-04-04T04:00:57.405Z,96770.49
2018-04-04T04:01:29.012Z,96766.30
2018-04-04T04:02:00.591Z,96737.49
2018-04-04T04:02:32.186Z,96770.86
2018-04-04T04:03:03.805Z,96770.45
2018-04-04T04:03:35.425Z,96762.77
2018-04-04T04:04:07.006Z,96768.69
2018-04-04T04:04:38.579Z,96769.44
2018-04-04T04:05:10.206Z,96770.42
2018-04-04T04:05:41.806Z,96777.56
2018-04-04T04:06:13.421Z,96770.72
2018-04-04T04:06:45.031Z,96778.27
2018-04-04T04:07:16.622Z,96775.38
2018-04-04T04:07:48.190Z,96769.91
2018-04-04T04:08:19.780Z,96771.45
2018-04-04T04:08:51.384Z,96769.48
2018-04-04T04:09:23.004Z,96771.80
2018-04-04T04:09:54.592Z,96774.27
2018-04-04T04:10:26.231Z,96769.13
2018-04-04T04:10:57.803Z,96767.53
2018-04-04T04:11:29.444Z,96769.22
2018-04-04T04:12:01.046Z,96771.36
2018-04-04T04:12:32.630Z,96777.27
2018-04-04T04:13:04.217Z,96770.84
2018-04-04T04:13:35.832Z,96768.84
2018-04-04T04:14:07.444Z,96771.11
2018-04-04T04:14:39.036Z,96772.86
2018-04-04T04:15:10.645Z,96773.73
2018-04-04T04:15:42.288Z,96769.39
2018-04-04T04:16:13.870Z,96772.38
2018-04-04T04:16:45.452Z,96766.84
2018-04-04T04:17:17.051Z,96773.71
2018-04-04T04:17:48.676Z,96772.06
2018-04-04T04:18:20.292Z,96766.00
2018-04-04T04:18:51.890Z,96764.27
2018-04-04T04:19:23.467Z,96768.55
2018-04-04T04:19:55.056Z,96766.52
2018-04-04T04:20:26.668Z,96765.12
2018-04-04T04:20:58.341Z,96768.87
2018-04-04T04:21:29.919Z,96769.24
2018-04-04T04:22:01.532Z,96767.97
2018-04-04T04:22:33.135Z,96766.80
2018-04-04T04:23:04.733Z,96768.83
2018-04-04T04:23:36.348Z,96773.79
2018-04-04T04:24:07.936Z,96772.85
2018-04-04T04:24:39.548Z,96765.44
2018-04-04T04:25:11.193Z,96764.21
2018-04-04T04:25:42.790Z,96775.63
2018-04-04T04:26:14.468Z,96770.59
2018-04-04T04:26:46.055Z,96772.36
2018-04-04T04:27:17.641Z,96774.12
2018-04-04T04:27:49.219Z,96771.87
2018-04-04T04:28:20.828Z,96767.25
2018-04-04T04:28:52.431Z,96802.98
2018-04-04T04:29:24.024Z,96771.35
2018-04-04T04:29:55.632Z,96773.17
2018-04-04T04:30:27.245Z,96771.89
2018-04-04T04:30:58.860Z,96776.14
2018-04-04T04:31:30.512Z,96778.27
2018-04-04T04:32:02.111Z,96777.30
2018-04-04T04:32:33.718Z,96771.02
2018-04-04T04:33:05.323Z,96772.19
2018-04-04T04:33:36.898Z,96770.39
2018-04-04T04:34:08.489Z,96772.53
2018-04-04T04:34:40.091Z,96777.66
2018-04-04T04:35:11.690Z,96776.37
2018-04-04T04:35:43.295Z,96779.84
2018-04-04T04:36:14.902Z,96770.81
2018-04-04T04:36:46.572Z,96772.09
2018-04-04T04:37:18.160Z,96767.77
2018-04-04T04:37:49.744Z,96769.53
2018-04-04T04:38:21.315Z,96771.55
2018-04-04T04:38:52.899Z,96776.67
2018-04-04T04:39:24.475Z,96782.64
2018-04-04T04:39:56.084Z,96777.36
2018-04-04T04:40:27.682Z,96783.38
2018-04-04T04:40:59.277Z,96787.28
2018-04-04T04:41:31.324Z,96781.22
2018-04-04T04:42:02.903Z,96776.89
2018-04-04T04:42:34.512Z,96785.05
2018-04-04T04:43:06.101Z,96781.80
2018-04-04T04:43:37.708Z,96785.95
2018-04-04T04:44:09.320Z,96782.86
2018-04-04T04:44:40.908Z,96779.10
2018-04-04T04:45:12.516Z,96784.41
2018-04-04T04:45:44.129Z,96782.00
2018-04-04T04:46:15.714Z,96788.80
2018-04-04T04:46:47.300Z,96788.73
2018-04-04T04:47:18.960Z,96783.20
2018-04-04T04:47:50.572Z,96784.45
2018-04-04T04:48:22.184Z,96782.77
2018-04-04T04:48:53.773Z,96790.08
2018-04-04T04:49:25.360Z,96785.71
2018-04-04T04:49:56.946Z,96792.12
2018-04-04T04:50:28.535Z,96788.19
2018-04-04T04:51:00.127Z,96787.63
2018-04-04T04:51:31.716Z,96793.61
2018-04-04T04:52:03.324Z,96786.05
2018-04-04T04:52:34.991Z,96788.48
2018-04-04T04:53:06.571Z,96787.02
2018-04-04T04:53:38.156Z,96789.86
2018-04-04T04:54:09.768Z,96792.27
2018-04-04T04:54:41.356Z,96789.66
2018-04-04T04:55:12.940Z,96789.17
2018-04-04T04:55:44.552Z,96795.28
2018-04-04T04:56:16.172Z,96793.59
2018-04-04T04:56:47.774Z,96801.22
2018-04-04T04:57:19.374Z,96794.40
2018-04-04T04:57:51.012Z,96790.98
2018-04-04T04:58:22.710Z,96794.32
2018-04-04T04:58:54.317Z,96796.04
2018-04-04T04:59:25.937Z,96798.17
2018-04-04T04:59:57.567Z,96796.48
2018-04-04T05:00:29.222Z,96795.30
2018-04-04T05:01:00.816Z,96799.43
2018-04-04T05:01:32.399Z,96796.44
2018-04-04T05:02:03.996Z,96798.59
2018-04-04T05:02:35.570Z,96799.33
2018-04-04T05:03:07.198Z,96799.84
2018-04-04T05:03:38.770Z,96797.71
2018-04-04T05:04:10.357Z,96801.56
2018-04-04T05:04:41.968Z,96796.90
2018-04-04T05:05:13.558Z,96796.45
2018-04-04T05:05:45.131Z,96797.31
2018-04-04T05:06:16.706Z,96796.41
2018-04-04T05:06:48.378Z,96791.20
2018-04-04T05:07:20.020Z,96789.30
2018-04-04T05:07:51.627Z,96790.47
2018-04-04T05:08:23.297Z,96790.91
2018-04-04T05:08:54.895Z,96800.73
2018-04-04T05:09:26.514Z,96794.81
2018-04-04T05:09:58.131Z,96794.11
2018-04-04T05:10:29.737Z,96803.83
2018-04-04T05:11:01.344Z,96798.16
2018-04-04T05:11:32.955Z,96804.12
2018-04-04T05:12:04.583Z,96807.92
2018-04-04T05:12:36.196Z,96806.70
2018-04-04T05:13:07.783Z,96806.67
2018-04-04T05:13:39.448Z,96799.77
2018-04-04T05:14:11.056Z,96802.67
2018-04-04T05:14:42.668Z,96801.78
2018-04-04T05:15:14.288Z,96805.14
2018-04-04T05:15:45.874Z,96800.92
2018-04-04T05:16:17.483Z,96798.42
2018-04-04T05:16:49.099Z,96801.86
2018-04-04T05:17:20.706Z,96795.55
2018-04-04T05:17:52.294Z,96797.61
2018-04-04T05:18:23.866Z,96797.19
2018-04-04T05:18:55.530Z,96801.02
2018-04-04T05:19:27.132Z,96799.87
2018-04-04T05:19:58.720Z,96811.27
2018-04-04T05:20:30.338Z,96808.03
2018-04-04T05:21:01.940Z,96793.47
2018-04-04T05:21:33.536Z,96806.43
2018-04-04T05:22:05.110Z,96804.72
2018-04-04T05:22:36.692Z,96803.06
2018-04-04T05:23:08.276Z,96807.75
2018-04-04T05:23:39.873Z,96806.48
2018-04-04T05:24:11.516Z,96801.91
2018-04-04T05:24:43.100Z,96810.80
2018-04-04T05:25:14.714Z,96805.74
2018-04-04T05:25:46.309Z,96807.59
2018-04-04T05:26:17.924Z,96807.95
2018-04-04T05:26:49.536Z,96810.14
2018-04-04T05:27:21.148Z,96801.25
2018-04-04T05:27:52.761Z,96801.22
2018-04-04T05:28:24.348Z,96799.97
2018-04-04T05:28:55.936Z,96801.58
2018-04-04T05:29:27.594Z,96807.46
2018-04-04T05:29:59.199Z,96810.95
2018-04-04T05:30:30.808Z,96806.27
2018-04-04T05:31:02.392Z,96807.53
2018-04-04T05:31:33.986Z,96806.30
2018-04-04T05:32:05.576Z,96809.30
2018-04-04T05:32:37.150Z,96812.71
2018-04-04T05:33:08.732Z,96811.02
2018-04-04T05:33:40.344Z,96808.47
2018-04-04T05:34:11.931Z,96802.00
2018-04-04T05:34:43.588Z,96806.66
2018-04-04T05:35:15.205Z,96806.33
2018-04-04T05:35:46.796Z,96799.63
2018-04-04T05:36:18.408Z,96804.73
2018-04-04T05:36:50.005Z,96799.75
2018-04-04T05:37:21.596Z,96811.48
2018-04-04T05:37:53.211Z,96807.80
2018-04-04T05:38:24.801Z,96807.66
2018-04-04T05:38:56.415Z,96802.97
2018-04-04T05:39:28.028Z,96810.26
2018-04-04T05:39:59.691Z,96812.52
2018-04-04T05:40:31.280Z,96809.84
2018-04-04T05:41:02.888Z,96806.67
2018-04-04T05:41:34.476Z,96818.61
2018-04-04T05:42:06.060Z,96817.33
2018-04-04T05:42:37.676Z,96816.52
2018-04-04T05:43:09.304Z,96823.32
2018-04-04T05:43:40.972Z,96821.58
2018-04-04T05:44:12.564Z,96816.13
2018-04-04T05:44:44.152Z,96818.27
2018-04-04T05:45:15.788Z,96819.08
2018-04-04T05:45:47.376Z,96818.27
2018-04-04T05:46:19.009Z,96818.23
2018-04-04T05:46:50.628Z,96814.84
2018-04-04T05:47:22.241Z,96798.28
2018-04-04T05:47:53.861Z,96815.39
2018-04-04T05:48:25.453Z,96811.78
2018-04-04T05:48:57.064Z,96808.39
2018-04-04T05:49:28.667Z,96815.27
2018-04-04T05:50:00.256Z,96810.55
2018-04-04T05:50:31.916Z,96815.78
2018-04-04T05:51:03.532Z,96812.10
2018-04-04T05:51:35.153Z,96809.89
2018-04-04T05:52:06.755Z,96812.02
2018-04-04T05:52:38.335Z,96814.55
2018-04-04T05:53:09.919Z,96814.67
2018-04-04T05:53:41.527Z,96820.59
2018-04-04T05:54:13.112Z,96818.41
2018-04-04T05:54:44.696Z,96812.10
2018-04-04T05:55:16.295Z,96817.19
2018-04-04T05:55:47.909Z,96819.31
2018-04-04T05:56:19.519Z,96822.29
2018-04-04T05:56:51.141Z,96821.43
2018-04-04T05:57:22.760Z,96822.80
2018-04-04T05:57:54.381Z,96820.94
2018-04-04T05:58:26.046Z,96826.12
2018-04-04T05:58:57.637Z,96824.86
2018-04-04T05:59:29.838Z,96822.31
2018-04-04T06:00:00.828Z,96826.12
2018-04-04T06:00:32.432Z,96824.34
2018-04-04T06:01:04.007Z,96825.92
2018-04-04T06:01:35.593Z,96822.11
2018-04-04T06:02:07.172Z,96822.05
2018-04-04T06:02:38.788Z,96821.67
2018-04-04T06:03:10.381Z,96824.64
2018-04-04T06:03:41.989Z,96822.21
2018-04-04T06:04:13.576Z,96824.77
2018-04-04T06:04:45.192Z,96820.84
2018-04-04T06:05:16.784Z,96824.98
2018-04-04T06:05:48.439Z,96820.23
2018-04-04T06:06:20.029Z,96820.19
2018-04-04T06:06:51.635Z,96818.52
2018-04-04T06:07:23.224Z,96821.05
2018-04-04T06:07:54.836Z,96819.42
2018-04-04T06:08:26.424Z,96829.24
2018-04-04T06:08:59.050Z,96821.06
2018-04-04T06:09:30.640Z,96820.16
2018-04-04T06:10:02.248Z,96822.76
2018-04-04T06:10:33.859Z,96827.00
2018-04-04T06:11:05.514Z,96816.40